HOURLY OBS INDEX

013

Northeast interior

BALGO HILLS ASA

Site: 013045
Alt: 421.1m
215km S of HALLS CREEK


  Time     Wind        Temp  DP   Baro     Rain since   Rain past  Vis(m), Cloud(base in m), Weather
  local        km/h                         9am  last   hr   10m    
Mon 06:00  ------/--- --------  1022.9   ----  ----  ----  ----   ----- 
Mon 06:30  ------/--- --------  1023.5   ----  ----  ----  ----   ----- 
Mon 07:00  ------/--- --------  1023.7   ----  ----  ----  ----   ----- 
Mon 07:30  ------/--- --------  1023.8   ----  ----  ----  ----   ----- 
Mon 08:00  ------/--- --------  1024.0   ----  ----  ----  ----   ----- 
Mon 08:30  ------/--- --------  1024.1   ----  ----  ----  ----   ----- 
Mon 09:00  ------/--- --------  1024.3   ----  ----  ----  ----   ----- 
Mon 09:30  ------/--- --------  1024.3   ----  ----  ----  ----   ----- 
Mon 10:00  ------/--- --------  1023.9   ----  ----  ----  ----   ----- 
Mon 10:30  ------/--- --------  1023.4   ----  ----  ----  ----   ----- 
Mon 11:00  ------/--- --------  1023.0   ----  ----  ----  ----   ----- 

GILES METEOROLOGICAL OFFICE

Site: 013017
Alt: 598.0m
709km NE of LAVERTON


  Time     Wind        Temp  DP   Baro     Rain since   Rain past  Vis(m), Cloud(base in m), Weather
  local        km/h                         9am  last   hr   10m    
Mon 06:00    E 13/ 15   5.9 -0.2  1024.2    0.0   0.0   0.0   0.0   10000 
Mon 06:30    E 15/ 20   7.3 -0.5  1024.3    0.0   0.0   0.0   0.0   10000 
Mon 07:00  ENE 22/ 35   9.8 -1.1  1024.2    0.0   0.0   0.0   0.0   10000 
Mon 07:30  ENE 22/ 33  10.6 -1.2  1024.2    0.0   0.0   0.0   0.0   10000 
Mon 08:00  ENE 28/ 39  11.5 -1.5  1024.3    0.0   0.0   0.0   0.0   10000 
Mon 08:30  ENE 24/ 32  12.7 -1.7  1024.7    0.0   0.0   0.0   0.0   10000 
Mon 09:00  ENE 20/ 30  13.3 -2.1  1024.8    0.0   0.0   0.0   0.0   10000 
Mon 09:30  ENE 24/ 32  14.0 -2.4  1025.0    0.0   0.0   0.0   0.0   10000 
Mon 10:00  ENE 24/ 35  14.8 -2.4  1024.8    0.0   0.0   0.0   0.0   10000 
Mon 10:30   NE 20/ 32  15.6 -3.3  1024.2    0.0   0.0   0.0   0.0   10000 
Mon 11:00   NE 19/ 26  16.2 -3.3  1023.7    0.0   0.0   0.0   0.0   10000 

TELFER AERO

Site: 013030
Alt: 291.9m
315km NE of NEWMAN


  Time     Wind        Temp  DP   Baro     Rain since   Rain past  Vis(m), Cloud(base in m), Weather
  local        km/h                         9am  last   hr   10m    
Mon 06:00   SE 19/ 20   9.6 -6.7  1020.0    0.0   0.0   0.0   0.0   10000 
Mon 06:30   SE 19/ 22   9.9 -8.2  1020.2    0.0   0.0   0.0   0.0   10000 
Mon 07:00   SE 19/ 24  10.5 -5.9  1020.5    0.0   0.0   0.0   0.0   10000 
Mon 07:30   SE 19/ 24  11.2 -5.7  1020.9    0.0   0.0   0.0   0.0   10000 
Mon 08:00   SE 19/ 22  12.1 -5.4  1021.1    0.0   0.0   0.0   0.0   10000 
Mon 08:30  ESE 19/ 22  13.8 -4.8  1021.2    0.0   0.0   0.0   0.0   10000 
Mon 09:00    E 22/ 32  16.6 -4.0  1021.5    0.0   0.0   0.0   0.0   10000 
Mon 09:30    E 22/ 30  17.7 -3.7  1021.6    0.0   0.0   0.0   0.0   10000 
Mon 10:00    E 20/ 28  18.9 -3.9  1021.4    0.0   0.0   0.0   0.0   10000 
Mon 10:30    E 17/ 22  21.0 -2.8  1021.0    0.0   0.0   0.0   0.0   10000 
Mon 11:00  ENE 20/ 28  22.0 -3.4  1020.6    0.0   0.0   0.0   0.0   10000 

WARBURTON AIRFIELD

Site: 013011
Alt: 459.0m
497km NE of LAVERTON


  Time     Wind        Temp  DP   Baro     Rain since   Rain past  Vis(m), Cloud(base in m), Weather
  local        km/h                         9am  last   hr   10m    
Mon 06:00   NE 17/ 24   7.0  0.0  1023.1    0.0   0.0   0.0   0.0   ----- 
Mon 06:30   NE 17/ 30   7.4  0.4  1023.1    0.0   0.0   0.0   0.0   ----- 
Mon 07:00   NE 17/ 28   8.6  0.8  1023.4    0.0   0.0   0.0   0.0   ----- 
Mon 07:30   NE 13/ 20   9.7  0.9  1023.7    0.0   0.0   0.0   0.0   ----- 
Mon 08:00  NNE  7/ 11  11.0  1.0  1024.4    0.0   0.0   0.0   0.0   ----- 
Mon 08:30   NE  7/ 11  12.4  1.1  1024.7    0.0   0.0   0.0   0.0   ----- 
Mon 09:00  NNE 13/ 19  14.0  1.3  1025.1    0.0   0.0   0.0   0.0   ----- 
Mon 09:30    N 20/ 28  14.9  0.7  1025.2    0.0   0.0   0.0   0.0   ----- 
Mon 10:00    N 20/ 28  15.8  0.4  1024.8    0.0   0.0   0.0   0.0   ----- 
Mon 10:30    N 22/ 30  16.3  0.0  1024.3    0.0   0.0   0.0   0.0   ----- 
Mon 11:00    N 24/ 32  17.2 -0.5  1023.9    0.0   0.0   0.0   0.0   ----- 

WILUNA AERO

Site: 013044
Alt: 502.4m
km of


  Time     Wind        Temp  DP   Baro     Rain since   Rain past  Vis(m), Cloud(base in m), Weather
  local        km/h                         9am  last   hr   10m    
Mon 06:00    N  7/  9   5.5 -6.4  1021.6    0.0   0.0   0.0   0.0   10000 
Mon 06:30    N  7/  9   4.1 -6.5  1021.7    0.0   0.0   0.0   0.0   10000 
Mon 07:00    N  7/  9   4.1 -6.5  1021.8    0.0   0.0   0.0   0.0   10000 
Mon 07:30    N  9/ 11   6.0 -5.9  1021.8    0.0   0.0   0.0   0.0   10000 
Mon 08:00  NNE 11/ 15   9.1 -5.9  1021.9    0.0   0.0   0.0   0.0   10000 
Mon 08:30  NNE 15/ 19  10.7 -5.7  1022.1    0.0   0.0   0.0   0.0   10000 
Mon 09:00  NNE 11/ 15  12.9 -5.6  1022.4    0.0   0.0   0.0   0.0   10000 
Mon 09:30  NNE 17/ 20  14.7 -5.6  1022.6    0.0   0.0   0.0   0.0   10000 
Mon 10:00    N 17/ 26  16.6 -6.4  1022.5    0.0   0.0   0.0   0.0   10000 
Mon 10:30    N 20/ 30  17.5 -7.0  1022.0    0.0   0.0   0.0   0.0   10000 
Mon 11:00    N 17/ 26  18.2 -8.8  1021.6    0.0   0.0   0.0   0.0   10000